TimeEDT,TemperatureF,Dew PointF,Humidity,Sea Level PressureIn,VisibilityMPH,Wind Direction,Wind SpeedMPH,Gust SpeedMPH,PrecipitationIn,Events,Conditions,WindDirDegrees,DateUTC
12:15 AM,50.2,50.2,100,30.10,10.0,North,-9999.0,-,N/A,,Scattered Clouds,0,2013-09-14 04:15:00
12:35 AM,49.8,49.8,100,30.10,10.0,North,-9999.0,-,N/A,,Scattered Clouds,0,2013-09-14 04:35:00
12:55 AM,49.5,49.5,100,30.10,10.0,North,-9999.0,-,N/A,,Clear,0,2013-09-14 04:55:00
1:15 AM,49.5,49.5,100,30.10,10.0,North,-9999.0,-,N/A,,Clear,0,2013-09-14 05:15:00
1:35 AM,48.9,48.9,100,30.11,10.0,North,-9999.0,-,N/A,,Scattered Clouds,0,2013-09-14 05:35:00
1:55 AM,48.6,48.6,100,30.10,10.0,North,-9999.0,-,N/A,,Scattered Clouds,0,2013-09-14 05:55:00
2:15 AM,48.4,48.4,100,30.10,10.0,North,-9999.0,-,N/A,,Scattered Clouds,0,2013-09-14 06:15:00
2:35 AM,48.0,48.0,100,30.10,10.0,North,-9999.0,-,N/A,,Clear,0,2013-09-14 06:35:00
2:55 AM,48.2,48.2,100,30.10,10.0,North,-9999.0,-,N/A,,Mostly Cloudy,0,2013-09-14 06:55:00
3:15 AM,48.2,48.2,100,30.10,1.5,North,-9999.0,-,N/A,,Overcast,0,2013-09-14 07:15:00
3:35 AM,48.6,48.6,100,30.10,0.8,North,-9999.0,-,N/A,,Overcast,0,2013-09-14 07:35:00
3:55 AM,49.3,49.3,100,30.10,1.2,North,-9999.0,-,N/A,,Overcast,0,2013-09-14 07:55:00
4:15 AM,48.9,48.9,100,30.10,0.5,North,-9999.0,-,N/A,Fog,Fog,0,2013-09-14 08:15:00
4:35 AM,48.9,48.9,100,30.10,0.2,North,-9999.0,-,N/A,Fog,Fog,0,2013-09-14 08:35:00
4:55 AM,48.6,48.6,100,30.10,0.5,North,-9999.0,-,N/A,Fog,Fog,0,2013-09-14 08:55:00
5:15 AM,49.3,49.3,100,30.11,0.5,North,-9999.0,-,N/A,Fog,Fog,0,2013-09-14 09:15:00
5:35 AM,50.0,50.0,100,30.11,0.8,North,-9999.0,-,N/A,,Overcast,0,2013-09-14 09:35:00
5:55 AM,50.0,50.0,100,30.11,0.2,North,-9999.0,-,N/A,Fog,Fog,0,2013-09-14 09:55:00
6:15 AM,50.0,50.0,100,30.12,0.2,North,-9999.0,-,N/A,Fog,Fog,0,2013-09-14 10:15:00
6:35 AM,50.0,50.0,100,30.13,0.2,North,-9999.0,-,N/A,Fog,Fog,0,2013-09-14 10:35:00
6:55 AM,50.4,50.4,100,30.13,0.5,North,-9999.0,-,N/A,Fog,Fog,0,2013-09-14 10:55:00
7:15 AM,50.0,50.0,100,30.14,0.5,North,-9999.0,-,N/A,Fog,Fog,0,2013-09-14 11:15:00
7:35 AM,49.6,49.6,100,30.15,0.2,North,-9999.0,-,N/A,Fog,Fog,0,2013-09-14 11:35:00
7:55 AM,50.0,50.0,100,30.16,0.2,North,-9999.0,-,N/A,Fog,Fog,0,2013-09-14 11:55:00
8:15 AM,50.2,50.2,100,30.17,0.5,North,-9999.0,-,N/A,Fog,Fog,0,2013-09-14 12:15:00
8:35 AM,50.2,50.2,100,30.18,2.5,North,-9999.0,-,N/A,,Overcast,0,2013-09-14 12:35:00
8:55 AM,50.7,50.7,100,30.19,1.8,North,-9999.0,-,N/A,,Overcast,0,2013-09-14 12:55:00
9:15 AM,51.6,51.6,100,30.19,10.0,North,-9999.0,-,N/A,,Mostly Cloudy,0,2013-09-14 13:15:00
9:35 AM,54.7,54.7,100,30.19,10.0,North,-9999.0,-,N/A,,Clear,0,2013-09-14 13:35:00
9:55 AM,58.1,54.3,87,30.20,10.0,North,-9999.0,-,N/A,,Mostly Cloudy,0,2013-09-14 13:55:00
10:15 AM,58.8,52.2,79,30.20,10.0,North,-9999.0,-,N/A,,Scattered Clouds,0,2013-09-14 14:15:00
10:35 AM,59.2,50.7,74,30.20,10.0,North,-9999.0,-,N/A,,Scattered Clouds,0,2013-09-14 14:35:00
10:55 AM,62.1,50.0,65,30.20,10.0,North,-9999.0,-,N/A,,Overcast,0,2013-09-14 14:55:00
11:15 AM,62.4,49.8,63,30.20,10.0,North,-9999.0,-,N/A,,Scattered Clouds,0,2013-09-14 15:15:00
11:35 AM,62.4,49.6,63,30.20,10.0,North,-9999.0,-,N/A,,Clear,0,2013-09-14 15:35:00
11:55 AM,63.1,48.0,58,30.20,10.0,North,-9999.0,-,N/A,,Clear,0,2013-09-14 15:55:00
12:15 PM,64.8,48.2,55,30.19,10.0,North,-9999.0,-,N/A,,Clear,0,2013-09-14 16:15:00
12:35 PM,65.7,48.6,54,30.18,10.0,North,-9999.0,-,N/A,,Clear,0,2013-09-14 16:35:00
12:55 PM,65.8,48.4,53,30.18,10.0,North,-9999.0,-,N/A,,Clear,0,2013-09-14 16:55:00
1:15 PM,66.9,48.2,51,30.18,10.0,North,-9999.0,-,N/A,,Clear,0,2013-09-14 17:15:00
1:35 PM,67.8,49.5,52,30.18,10.0,North,-9999.0,-,N/A,,Clear,0,2013-09-14 17:35:00
1:55 PM,66.7,48.7,52,30.17,10.0,North,-9999.0,-,N/A,,Clear,0,2013-09-14 17:55:00
2:15 PM,68.7,49.8,51,30.16,10.0,North,-9999.0,-,N/A,,Clear,0,2013-09-14 18:15:00
2:35 PM,69.8,49.6,49,30.16,10.0,North,-9999.0,-,N/A,,Clear,0,2013-09-14 18:35:00
2:55 PM,70.9,49.6,47,30.16,10.0,North,-9999.0,-,N/A,,Clear,0,2013-09-14 18:55:00
3:15 PM,70.2,49.6,48,30.16,10.0,North,-9999.0,-,N/A,,Clear,0,2013-09-14 19:15:00
3:35 PM,69.8,48.9,47,30.15,10.0,North,-9999.0,-,N/A,,Clear,0,2013-09-14 19:35:00
3:55 PM,70.7,51.1,50,30.15,10.0,North,-9999.0,-,N/A,,Clear,0,2013-09-14 19:55:00
4:15 PM,72.0,49.8,46,30.15,10.0,North,-9999.0,-,N/A,,Clear,0,2013-09-14 20:15:00
4:35 PM,71.6,49.5,45,30.15,10.0,North,-9999.0,-,N/A,,Clear,0,2013-09-14 20:35:00
4:55 PM,70.2,54.0,56,30.15,10.0,North,-9999.0,-,N/A,,Clear,0,2013-09-14 20:55:00
5:15 PM,70.5,52.5,53,30.15,10.0,North,-9999.0,-,N/A,,Clear,0,2013-09-14 21:15:00
5:35 PM,66.2,57.4,73,30.15,10.0,North,-9999.0,-,N/A,,Clear,0,2013-09-14 21:35:00
5:55 PM,63.9,55.8,75,30.16,10.0,North,-9999.0,-,N/A,,Clear,0,2013-09-14 21:55:00
6:15 PM,61.7,57.0,85,30.16,10.0,North,-9999.0,-,N/A,,Clear,0,2013-09-14 22:15:00
6:35 PM,61.0,57.2,87,30.17,10.0,North,-9999.0,-,N/A,,Clear,0,2013-09-14 22:35:00
6:55 PM,60.1,57.2,90,30.17,10.0,North,-9999.0,-,N/A,,Clear,0,2013-09-14 22:55:00
7:15 PM,59.4,57.4,93,30.18,10.0,North,-9999.0,-,N/A,,Clear,0,2013-09-14 23:15:00
7:35 PM,58.3,57.0,96,30.18,10.0,North,-9999.0,-,N/A,,Clear,0,2013-09-14 23:35:00
7:55 PM,57.2,55.9,96,30.18,10.0,North,-9999.0,-,N/A,,Clear,0,2013-09-14 23:55:00
8:15 PM,55.8,55.4,99,30.18,10.0,North,-9999.0,-,N/A,,Clear,0,2013-09-15 00:15:00
8:35 PM,55.4,54.9,98,30.19,10.0,North,-9999.0,-,N/A,,Clear,0,2013-09-15 00:35:00
8:55 PM,54.5,54.3,99,30.19,10.0,North,-9999.0,-,N/A,,Clear,0,2013-09-15 00:55:00
9:15 PM,53.8,53.8,100,30.20,10.0,North,-9999.0,-,N/A,,Clear,0,2013-09-15 01:15:00
9:35 PM,53.2,53.2,100,30.20,10.0,North,-9999.0,-,N/A,,Clear,0,2013-09-15 01:35:00
9:55 PM,52.7,52.7,100,30.20,7.0,North,-9999.0,-,N/A,,Clear,0,2013-09-15 01:55:00
10:15 PM,52.2,52.2,100,30.21,7.0,North,-9999.0,-,N/A,,Clear,0,2013-09-15 02:15:00
10:35 PM,51.6,51.6,100,30.21,7.0,North,-9999.0,-,N/A,,Clear,0,2013-09-15 02:35:00
10:55 PM,51.3,51.3,100,30.21,7.0,North,-9999.0,-,N/A,,Clear,0,2013-09-15 02:55:00
11:15 PM,50.9,50.9,100,30.21,7.0,North,-9999.0,-,N/A,,Clear,0,2013-09-15 03:15:00
11:35 PM,50.7,50.7,100,30.21,7.0,North,-9999.0,-,N/A,,Clear,0,2013-09-15 03:35:00
11:55 PM,50.2,50.2,100,30.21,7.0,North,-9999.0,-,N/A,,Clear,0,2013-09-15 03:55:00